sensor_id;sensor_type;location;lat;lon;timestamp;P1;durP1;ratioP1;P2;durP2;ratioP2
20653;SDS011;21083;50.898;4.902;2023-03-01T00:00:04;13.80;;;6.97;;
20653;SDS011;21083;50.898;4.902;2023-03-01T00:02:33;18.27;;;7.93;;
20653;SDS011;21083;50.898;4.902;2023-03-01T00:05:01;15.20;;;8.05;;
20653;SDS011;21083;50.898;4.902;2023-03-01T00:07:28;17.15;;;8.27;;
20653;SDS011;21083;50.898;4.902;2023-03-01T00:09:55;15.27;;;7.72;;
20653;SDS011;21083;50.898;4.902;2023-03-01T00:12:24;16.20;;;7.65;;
20653;SDS011;21083;50.898;4.902;2023-03-01T00:14:51;16.88;;;7.28;;
20653;SDS011;21083;50.898;4.902;2023-03-01T00:17:18;15.93;;;8.07;;
20653;SDS011;21083;50.898;4.902;2023-03-01T00:19:46;13.55;;;7.45;;
20653;SDS011;21083;50.898;4.902;2023-03-01T00:22:14;17.10;;;7.90;;
20653;SDS011;21083;50.898;4.902;2023-03-01T00:24:41;17.85;;;7.72;;
20653;SDS011;21083;50.898;4.902;2023-03-01T00:27:08;15.57;;;8.35;;
20653;SDS011;21083;50.898;4.902;2023-03-01T00:29:34;19.33;;;8.35;;
20653;SDS011;21083;50.898;4.902;2023-03-01T00:32:02;22.25;;;8.88;;
20653;SDS011;21083;50.898;4.902;2023-03-01T00:34:30;17.48;;;7.70;;
20653;SDS011;21083;50.898;4.902;2023-03-01T00:36:56;19.73;;;8.00;;
20653;SDS011;21083;50.898;4.902;2023-03-01T00:39:31;17.13;;;7.97;;
20653;SDS011;21083;50.898;4.902;2023-03-01T00:41:59;21.08;;;8.35;;
20653;SDS011;21083;50.898;4.902;2023-03-01T00:44:25;14.10;;;7.95;;
20653;SDS011;21083;50.898;4.902;2023-03-01T00:46:53;16.85;;;7.72;;
20653;SDS011;21083;50.898;4.902;2023-03-01T00:49:21;16.80;;;7.97;;
20653;SDS011;21083;50.898;4.902;2023-03-01T00:51:49;17.15;;;7.32;;
20653;SDS011;21083;50.898;4.902;2023-03-01T00:54:16;20.40;;;7.32;;
20653;SDS011;21083;50.898;4.902;2023-03-01T00:56:45;17.20;;;7.15;;
20653;SDS011;21083;50.898;4.902;2023-03-01T00:59:12;18.00;;;8.07;;
20653;SDS011;21083;50.898;4.902;2023-03-01T01:01:39;15.68;;;7.47;;
20653;SDS011;21083;50.898;4.902;2023-03-01T01:04:07;15.43;;;7.57;;
20653;SDS011;21083;50.898;4.902;2023-03-01T01:06:37;15.98;;;7.70;;
20653;SDS011;21083;50.898;4.902;2023-03-01T01:09:07;16.30;;;7.63;;
20653;SDS011;21083;50.898;4.902;2023-03-01T01:11:42;15.50;;;7.20;;
20653;SDS011;21083;50.898;4.902;2023-03-01T01:14:11;15.52;;;7.75;;
20653;SDS011;21083;50.898;4.902;2023-03-01T01:16:39;16.00;;;7.90;;
20653;SDS011;21083;50.898;4.902;2023-03-01T01:19:06;18.67;;;7.72;;
20653;SDS011;21083;50.898;4.902;2023-03-01T01:21:33;16.50;;;7.35;;
20653;SDS011;21083;50.898;4.902;2023-03-01T01:24:02;18.20;;;8.18;;
20653;SDS011;21083;50.898;4.902;2023-03-01T01:26:30;15.27;;;8.13;;
20653;SDS011;21083;50.898;4.902;2023-03-01T01:29:02;16.08;;;7.30;;
20653;SDS011;21083;50.898;4.902;2023-03-01T01:31:31;15.70;;;7.70;;
20653;SDS011;21083;50.898;4.902;2023-03-01T01:34:00;17.25;;;7.65;;
20653;SDS011;21083;50.898;4.902;2023-03-01T01:36:29;16.67;;;7.35;;
20653;SDS011;21083;50.898;4.902;2023-03-01T01:38:56;16.45;;;7.50;;
20653;SDS011;21083;50.898;4.902;2023-03-01T01:41:23;16.48;;;8.45;;
20653;SDS011;21083;50.898;4.902;2023-03-01T01:46:46;17.73;;;7.70;;
20653;SDS011;21083;50.898;4.902;2023-03-01T01:49:20;15.25;;;7.63;;
20653;SDS011;21083;50.898;4.902;2023-03-01T01:51:53;15.68;;;7.68;;
20653;SDS011;21083;50.898;4.902;2023-03-01T01:54:25;16.17;;;7.35;;
20653;SDS011;21083;50.898;4.902;2023-03-01T01:56:56;18.75;;;7.60;;
20653;SDS011;21083;50.898;4.902;2023-03-01T01:59:28;16.40;;;7.57;;
20653;SDS011;21083;50.898;4.902;2023-03-01T02:01:57;15.15;;;8.15;;
20653;SDS011;21083;50.898;4.902;2023-03-01T02:04:26;16.33;;;7.65;;
20653;SDS011;21083;50.898;4.902;2023-03-01T02:06:55;16.13;;;7.45;;
20653;SDS011;21083;50.898;4.902;2023-03-01T02:09:27;18.48;;;8.32;;
20653;SDS011;21083;50.898;4.902;2023-03-01T02:11:56;16.10;;;7.82;;
20653;SDS011;21083;50.898;4.902;2023-03-01T02:14:24;20.80;;;8.25;;
20653;SDS011;21083;50.898;4.902;2023-03-01T02:16:52;18.33;;;8.13;;
20653;SDS011;21083;50.898;4.902;2023-03-01T02:19:22;17.17;;;8.70;;
20653;SDS011;21083;50.898;4.902;2023-03-01T02:21:59;17.45;;;8.18;;
20653;SDS011;21083;50.898;4.902;2023-03-01T02:24:34;16.35;;;7.78;;
20653;SDS011;21083;50.898;4.902;2023-03-01T02:27:08;16.23;;;8.25;;
20653;SDS011;21083;50.898;4.902;2023-03-01T02:29:37;15.57;;;8.15;;
20653;SDS011;21083;50.898;4.902;2023-03-01T02:32:05;17.52;;;8.35;;
20653;SDS011;21083;50.898;4.902;2023-03-01T02:34:32;16.25;;;8.63;;
20653;SDS011;21083;50.898;4.902;2023-03-01T02:37:00;15.65;;;8.55;;
20653;SDS011;21083;50.898;4.902;2023-03-01T02:39:30;17.10;;;9.18;;
20653;SDS011;21083;50.898;4.902;2023-03-01T02:42:00;17.55;;;8.55;;
20653;SDS011;21083;50.898;4.902;2023-03-01T02:44:28;18.90;;;9.15;;
20653;SDS011;21083;50.898;4.902;2023-03-01T02:46:57;21.48;;;9.18;;
20653;SDS011;21083;50.898;4.902;2023-03-01T02:49:28;17.95;;;9.13;;
20653;SDS011;21083;50.898;4.902;2023-03-01T02:52:16;17.90;;;9.23;;
20653;SDS011;21083;50.898;4.902;2023-03-01T02:54:51;18.80;;;9.20;;
20653;SDS011;21083;50.898;4.902;2023-03-01T02:57:24;18.35;;;9.30;;
20653;SDS011;21083;50.898;4.902;2023-03-01T02:59:53;16.90;;;8.88;;
20653;SDS011;21083;50.898;4.902;2023-03-01T03:02:23;19.35;;;9.25;;
20653;SDS011;21083;50.898;4.902;2023-03-01T03:05:03;19.45;;;9.85;;
20653;SDS011;21083;50.898;4.902;2023-03-01T03:07:31;19.88;;;9.70;;
20653;SDS011;21083;50.898;4.902;2023-03-01T03:09:59;18.83;;;9.95;;
20653;SDS011;21083;50.898;4.902;2023-03-01T03:12:26;17.50;;;9.85;;
20653;SDS011;21083;50.898;4.902;2023-03-01T03:14:53;20.15;;;9.98;;
20653;SDS011;21083;50.898;4.902;2023-03-01T03:17:20;18.70;;;9.55;;
20653;SDS011;21083;50.898;4.902;2023-03-01T03:19:48;17.15;;;8.95;;
20653;SDS011;21083;50.898;4.902;2023-03-01T03:22:15;19.33;;;9.32;;
20653;SDS011;21083;50.898;4.902;2023-03-01T03:24:42;18.13;;;9.43;;
20653;SDS011;21083;50.898;4.902;2023-03-01T03:27:09;21.20;;;9.75;;
20653;SDS011;21083;50.898;4.902;2023-03-01T03:29:36;18.38;;;8.73;;
20653;SDS011;21083;50.898;4.902;2023-03-01T03:32:04;19.20;;;9.18;;
20653;SDS011;21083;50.898;4.902;2023-03-01T03:34:31;18.25;;;8.43;;
20653;SDS011;21083;50.898;4.902;2023-03-01T03:36:59;18.65;;;8.73;;
20653;SDS011;21083;50.898;4.902;2023-03-01T03:39:26;16.35;;;8.45;;
20653;SDS011;21083;50.898;4.902;2023-03-01T03:41:54;18.73;;;8.63;;
20653;SDS011;21083;50.898;4.902;2023-03-01T03:44:21;19.42;;;8.95;;
20653;SDS011;21083;50.898;4.902;2023-03-01T03:46:48;17.50;;;7.95;;
20653;SDS011;21083;50.898;4.902;2023-03-01T03:49:14;17.10;;;8.32;;
20653;SDS011;21083;50.898;4.902;2023-03-01T03:51:41;17.25;;;8.27;;
20653;SDS011;21083;50.898;4.902;2023-03-01T03:54:09;15.95;;;7.93;;
20653;SDS011;21083;50.898;4.902;2023-03-01T03:56:36;18.73;;;8.68;;
20653;SDS011;21083;50.898;4.902;2023-03-01T03:59:03;17.35;;;7.78;;
20653;SDS011;21083;50.898;4.902;2023-03-01T04:01:31;15.30;;;7.65;;
20653;SDS011;21083;50.898;4.902;2023-03-01T04:03:57;16.42;;;8.50;;
20653;SDS011;21083;50.898;4.902;2023-03-01T04:06:29;16.13;;;7.75;;
20653;SDS011;21083;50.898;4.902;2023-03-01T04:08:56;19.45;;;8.05;;
20653;SDS011;21083;50.898;4.902;2023-03-01T04:11:27;15.85;;;8.23;;
20653;SDS011;21083;50.898;4.902;2023-03-01T04:13:54;16.75;;;8.20;;
20653;SDS011;21083;50.898;4.902;2023-03-01T04:16:23;17.27;;;8.50;;
20653;SDS011;21083;50.898;4.902;2023-03-01T04:18:50;16.00;;;7.93;;
20653;SDS011;21083;50.898;4.902;2023-03-01T04:21:18;16.85;;;8.70;;
20653;SDS011;21083;50.898;4.902;2023-03-01T04:23:45;16.92;;;8.98;;
20653;SDS011;21083;50.898;4.902;2023-03-01T04:26:12;19.08;;;8.82;;
20653;SDS011;21083;50.898;4.902;2023-03-01T04:28:41;17.02;;;8.65;;
20653;SDS011;21083;50.898;4.902;2023-03-01T04:31:11;17.30;;;8.60;;
20653;SDS011;21083;50.898;4.902;2023-03-01T04:33:41;17.08;;;8.75;;
20653;SDS011;21083;50.898;4.902;2023-03-01T04:36:10;17.38;;;8.43;;
20653;SDS011;21083;50.898;4.902;2023-03-01T04:38:38;17.98;;;8.75;;
20653;SDS011;21083;50.898;4.902;2023-03-01T04:41:06;19.90;;;9.52;;
20653;SDS011;21083;50.898;4.902;2023-03-01T04:43:34;17.42;;;8.95;;
20653;SDS011;21083;50.898;4.902;2023-03-01T04:46:04;19.20;;;9.27;;
20653;SDS011;21083;50.898;4.902;2023-03-01T04:48:33;19.98;;;9.98;;
20653;SDS011;21083;50.898;4.902;2023-03-01T04:51:01;18.27;;;8.85;;
20653;SDS011;21083;50.898;4.902;2023-03-01T04:53:29;17.75;;;9.27;;
20653;SDS011;21083;50.898;4.902;2023-03-01T04:55:56;18.55;;;9.65;;
20653;SDS011;21083;50.898;4.902;2023-03-01T04:58:23;17.75;;;9.48;;
20653;SDS011;21083;50.898;4.902;2023-03-01T05:00:51;18.95;;;9.23;;
20653;SDS011;21083;50.898;4.902;2023-03-01T05:03:20;16.90;;;8.93;;
20653;SDS011;21083;50.898;4.902;2023-03-01T05:05:48;19.05;;;10.38;;
20653;SDS011;21083;50.898;4.902;2023-03-01T05:08:17;18.02;;;9.73;;
20653;SDS011;21083;50.898;4.902;2023-03-01T05:10:46;20.38;;;9.23;;
20653;SDS011;21083;50.898;4.902;2023-03-01T05:13:15;18.73;;;8.93;;
20653;SDS011;21083;50.898;4.902;2023-03-01T05:15:46;15.95;;;8.57;;
20653;SDS011;21083;50.898;4.902;2023-03-01T05:18:14;18.90;;;9.60;;
20653;SDS011;21083;50.898;4.902;2023-03-01T05:20:42;19.83;;;9.82;;
20653;SDS011;21083;50.898;4.902;2023-03-01T05:23:10;21.42;;;9.18;;
20653;SDS011;21083;50.898;4.902;2023-03-01T05:25:37;18.33;;;9.07;;
20653;SDS011;21083;50.898;4.902;2023-03-01T05:28:05;19.10;;;9.52;;
20653;SDS011;21083;50.898;4.902;2023-03-01T05:30:36;19.98;;;9.50;;
20653;SDS011;21083;50.898;4.902;2023-03-01T05:33:04;20.13;;;9.65;;
20653;SDS011;21083;50.898;4.902;2023-03-01T05:35:38;20.52;;;9.93;;
20653;SDS011;21083;50.898;4.902;2023-03-01T05:38:08;22.15;;;9.80;;
20653;SDS011;21083;50.898;4.902;2023-03-01T05:40:38;18.80;;;9.23;;
20653;SDS011;21083;50.898;4.902;2023-03-01T05:43:05;17.60;;;9.63;;
20653;SDS011;21083;50.898;4.902;2023-03-01T05:45:32;23.35;;;9.32;;
20653;SDS011;21083;50.898;4.902;2023-03-01T05:48:01;20.98;;;8.73;;
20653;SDS011;21083;50.898;4.902;2023-03-01T05:50:29;22.30;;;8.88;;
20653;SDS011;21083;50.898;4.902;2023-03-01T05:52:58;20.52;;;9.68;;
20653;SDS011;21083;50.898;4.902;2023-03-01T05:55:29;22.13;;;8.93;;
20653;SDS011;21083;50.898;4.902;2023-03-01T05:57:57;20.63;;;9.33;;
20653;SDS011;21083;50.898;4.902;2023-03-01T06:00:25;20.87;;;8.10;;
20653;SDS011;21083;50.898;4.902;2023-03-01T06:02:53;19.75;;;9.05;;
20653;SDS011;21083;50.898;4.902;2023-03-01T06:05:20;17.02;;;8.80;;
20653;SDS011;21083;50.898;4.902;2023-03-01T06:07:48;17.40;;;8.80;;
20653;SDS011;21083;50.898;4.902;2023-03-01T06:10:15;24.23;;;10.10;;
20653;SDS011;21083;50.898;4.902;2023-03-01T06:12:44;23.25;;;9.30;;
20653;SDS011;21083;50.898;4.902;2023-03-01T06:15:11;25.70;;;10.07;;
20653;SDS011;21083;50.898;4.902;2023-03-01T06:17:40;18.73;;;9.38;;
20653;SDS011;21083;50.898;4.902;2023-03-01T06:20:09;22.45;;;10.13;;
20653;SDS011;21083;50.898;4.902;2023-03-01T06:22:38;18.92;;;9.00;;
20653;SDS011;21083;50.898;4.902;2023-03-01T06:25:07;19.60;;;8.82;;
20653;SDS011;21083;50.898;4.902;2023-03-01T06:27:35;17.52;;;9.02;;
20653;SDS011;21083;50.898;4.902;2023-03-01T06:30:04;17.02;;;8.82;;
20653;SDS011;21083;50.898;4.902;2023-03-01T06:32:33;18.63;;;9.23;;
20653;SDS011;21083;50.898;4.902;2023-03-01T06:35:00;19.88;;;9.23;;
20653;SDS011;21083;50.898;4.902;2023-03-01T06:37:27;17.85;;;8.48;;
20653;SDS011;21083;50.898;4.902;2023-03-01T06:39:53;20.60;;;9.23;;
20653;SDS011;21083;50.898;4.902;2023-03-01T06:42:20;21.10;;;9.53;;
20653;SDS011;21083;50.898;4.902;2023-03-01T06:44:47;22.35;;;9.75;;
20653;SDS011;21083;50.898;4.902;2023-03-01T06:47:16;19.05;;;9.68;;
20653;SDS011;21083;50.898;4.902;2023-03-01T06:49:43;21.80;;;9.85;;
20653;SDS011;21083;50.898;4.902;2023-03-01T06:52:10;20.63;;;10.10;;
20653;SDS011;21083;50.898;4.902;2023-03-01T06:54:37;20.67;;;10.03;;
20653;SDS011;21083;50.898;4.902;2023-03-01T06:57:04;19.67;;;9.93;;
20653;SDS011;21083;50.898;4.902;2023-03-01T06:59:30;21.42;;;9.43;;
20653;SDS011;21083;50.898;4.902;2023-03-01T07:01:57;19.25;;;9.23;;
20653;SDS011;21083;50.898;4.902;2023-03-01T07:04:26;20.58;;;10.13;;
20653;SDS011;21083;50.898;4.902;2023-03-01T07:06:53;23.17;;;10.35;;
20653;SDS011;21083;50.898;4.902;2023-03-01T07:09:20;21.63;;;10.25;;
20653;SDS011;21083;50.898;4.902;2023-03-01T07:11:47;21.30;;;10.27;;
20653;SDS011;21083;50.898;4.902;2023-03-01T07:14:15;20.70;;;9.85;;
20653;SDS011;21083;50.898;4.902;2023-03-01T07:16:42;19.35;;;9.57;;
20653;SDS011;21083;50.898;4.902;2023-03-01T07:19:09;26.02;;;10.38;;
20653;SDS011;21083;50.898;4.902;2023-03-01T07:21:37;23.10;;;10.32;;
20653;SDS011;21083;50.898;4.902;2023-03-01T07:24:05;28.38;;;10.13;;
20653;SDS011;21083;50.898;4.902;2023-03-01T07:26:32;20.40;;;9.73;;
20653;SDS011;21083;50.898;4.902;2023-03-01T07:29:00;20.85;;;11.00;;
20653;SDS011;21083;50.898;4.902;2023-03-01T07:31:27;23.38;;;10.80;;
20653;SDS011;21083;50.898;4.902;2023-03-01T07:33:54;23.80;;;10.80;;
20653;SDS011;21083;50.898;4.902;2023-03-01T07:36:21;23.33;;;10.18;;
20653;SDS011;21083;50.898;4.902;2023-03-01T07:38:49;24.38;;;10.93;;
20653;SDS011;21083;50.898;4.902;2023-03-01T07:41:16;27.27;;;11.40;;
20653;SDS011;21083;50.898;4.902;2023-03-01T07:43:44;22.85;;;11.27;;
20653;SDS011;21083;50.898;4.902;2023-03-01T07:46:11;23.83;;;11.77;;
20653;SDS011;21083;50.898;4.902;2023-03-01T07:48:38;26.45;;;10.95;;
20653;SDS011;21083;50.898;4.902;2023-03-01T07:51:05;23.15;;;10.18;;
20653;SDS011;21083;50.898;4.902;2023-03-01T07:53:33;24.90;;;11.02;;
20653;SDS011;21083;50.898;4.902;2023-03-01T07:56:02;20.73;;;11.02;;
20653;SDS011;21083;50.898;4.902;2023-03-01T07:58:30;22.35;;;11.35;;
20653;SDS011;21083;50.898;4.902;2023-03-01T08:01:00;29.52;;;11.70;;
20653;SDS011;21083;50.898;4.902;2023-03-01T08:03:28;21.55;;;10.38;;
20653;SDS011;21083;50.898;4.902;2023-03-01T08:05:54;21.48;;;10.48;;
20653;SDS011;21083;50.898;4.902;2023-03-01T08:08:21;21.83;;;11.25;;
20653;SDS011;21083;50.898;4.902;2023-03-01T08:10:48;23.10;;;10.48;;
20653;SDS011;21083;50.898;4.902;2023-03-01T08:13:17;25.75;;;10.50;;
20653;SDS011;21083;50.898;4.902;2023-03-01T08:15:47;24.00;;;11.77;;
20653;SDS011;21083;50.898;4.902;2023-03-01T08:18:14;21.17;;;10.73;;
20653;SDS011;21083;50.898;4.902;2023-03-01T08:20:41;24.23;;;11.90;;
20653;SDS011;21083;50.898;4.902;2023-03-01T08:23:08;26.98;;;11.05;;
20653;SDS011;21083;50.898;4.902;2023-03-01T08:25:35;23.80;;;11.57;;
20653;SDS011;21083;50.898;4.902;2023-03-01T08:28:02;20.13;;;10.48;;
20653;SDS011;21083;50.898;4.902;2023-03-01T08:30:31;22.17;;;10.50;;
20653;SDS011;21083;50.898;4.902;2023-03-01T08:32:58;21.85;;;10.50;;
20653;SDS011;21083;50.898;4.902;2023-03-01T08:35:25;26.33;;;10.68;;
20653;SDS011;21083;50.898;4.902;2023-03-01T08:37:52;24.27;;;11.38;;
20653;SDS011;21083;50.898;4.902;2023-03-01T08:40:19;21.45;;;10.50;;
20653;SDS011;21083;50.898;4.902;2023-03-01T08:42:46;20.35;;;10.38;;
20653;SDS011;21083;50.898;4.902;2023-03-01T08:45:13;25.65;;;11.35;;
20653;SDS011;21083;50.898;4.902;2023-03-01T08:47:44;20.77;;;10.82;;
20653;SDS011;21083;50.898;4.902;2023-03-01T08:50:11;21.83;;;10.98;;
20653;SDS011;21083;50.898;4.902;2023-03-01T08:52:38;21.85;;;9.95;;
20653;SDS011;21083;50.898;4.902;2023-03-01T08:55:06;23.55;;;10.77;;
20653;SDS011;21083;50.898;4.902;2023-03-01T08:57:34;19.75;;;10.10;;
20653;SDS011;21083;50.898;4.902;2023-03-01T09:00:01;23.88;;;10.93;;
20653;SDS011;21083;50.898;4.902;2023-03-01T09:02:33;22.45;;;11.68;;
20653;SDS011;21083;50.898;4.902;2023-03-01T09:05:01;25.20;;;11.27;;
20653;SDS011;21083;50.898;4.902;2023-03-01T09:07:28;25.85;;;11.15;;
20653;SDS011;21083;50.898;4.902;2023-03-01T09:09:55;22.70;;;10.75;;
20653;SDS011;21083;50.898;4.902;2023-03-01T09:12:22;26.38;;;10.95;;
20653;SDS011;21083;50.898;4.902;2023-03-01T09:14:49;26.02;;;10.93;;
20653;SDS011;21083;50.898;4.902;2023-03-01T09:17:17;20.13;;;10.38;;
20653;SDS011;21083;50.898;4.902;2023-03-01T09:19:46;27.60;;;11.80;;
20653;SDS011;21083;50.898;4.902;2023-03-01T09:22:15;21.67;;;11.13;;
20653;SDS011;21083;50.898;4.902;2023-03-01T09:24:42;23.40;;;10.68;;
20653;SDS011;21083;50.898;4.902;2023-03-01T09:27:09;23.52;;;11.90;;
20653;SDS011;21083;50.898;4.902;2023-03-01T09:29:38;21.20;;;11.20;;
20653;SDS011;21083;50.898;4.902;2023-03-01T09:32:05;21.92;;;10.93;;
20653;SDS011;21083;50.898;4.902;2023-03-01T09:34:33;24.35;;;11.05;;
20653;SDS011;21083;50.898;4.902;2023-03-01T09:37:21;20.45;;;10.32;;
20653;SDS011;21083;50.898;4.902;2023-03-01T09:39:48;22.83;;;10.43;;
20653;SDS011;21083;50.898;4.902;2023-03-01T09:42:15;20.02;;;9.93;;
20653;SDS011;21083;50.898;4.902;2023-03-01T09:44:43;21.80;;;11.38;;
20653;SDS011;21083;50.898;4.902;2023-03-01T09:47:17;24.75;;;10.25;;
20653;SDS011;21083;50.898;4.902;2023-03-01T09:49:55;20.38;;;10.30;;
20653;SDS011;21083;50.898;4.902;2023-03-01T09:52:28;22.02;;;9.85;;
20653;SDS011;21083;50.898;4.902;2023-03-01T09:55:00;22.58;;;10.45;;
20653;SDS011;21083;50.898;4.902;2023-03-01T09:57:28;23.58;;;10.40;;
20653;SDS011;21083;50.898;4.902;2023-03-01T10:02:54;20.65;;;10.43;;
20653;SDS011;21083;50.898;4.902;2023-03-01T10:05:30;22.58;;;11.00;;
20653;SDS011;21083;50.898;4.902;2023-03-01T10:10:54;20.80;;;9.70;;
20653;SDS011;21083;50.898;4.902;2023-03-01T10:13:23;18.85;;;10.73;;
20653;SDS011;21083;50.898;4.902;2023-03-01T10:15:53;21.88;;;11.10;;
20653;SDS011;21083;50.898;4.902;2023-03-01T10:18:23;19.90;;;9.45;;
20653;SDS011;21083;50.898;4.902;2023-03-01T10:20:53;20.45;;;11.40;;
20653;SDS011;21083;50.898;4.902;2023-03-01T10:23:25;18.95;;;9.85;;
20653;SDS011;21083;50.898;4.902;2023-03-01T10:26:03;19.55;;;10.68;;
20653;SDS011;21083;50.898;4.902;2023-03-01T10:28:41;21.75;;;11.30;;
20653;SDS011;21083;50.898;4.902;2023-03-01T10:31:18;19.55;;;9.57;;
20653;SDS011;21083;50.898;4.902;2023-03-01T10:33:47;20.38;;;10.13;;
20653;SDS011;21083;50.898;4.902;2023-03-01T10:36:18;21.77;;;9.60;;
20653;SDS011;21083;50.898;4.902;2023-03-01T10:38:50;19.85;;;9.98;;
20653;SDS011;21083;50.898;4.902;2023-03-01T10:41:19;23.83;;;9.50;;
20653;SDS011;21083;50.898;4.902;2023-03-01T10:43:49;19.08;;;9.80;;
20653;SDS011;21083;50.898;4.902;2023-03-01T10:46:26;19.38;;;9.63;;
20653;SDS011;21083;50.898;4.902;2023-03-01T10:49:07;21.92;;;9.88;;
20653;SDS011;21083;50.898;4.902;2023-03-01T10:51:40;20.38;;;10.32;;
20653;SDS011;21083;50.898;4.902;2023-03-01T10:54:16;22.75;;;10.40;;
20653;SDS011;21083;50.898;4.902;2023-03-01T10:56:48;20.20;;;9.80;;
20653;SDS011;21083;50.898;4.902;2023-03-01T10:59:22;19.63;;;10.25;;
20653;SDS011;21083;50.898;4.902;2023-03-01T11:02:14;19.52;;;10.40;;
20653;SDS011;21083;50.898;4.902;2023-03-01T11:04:55;17.67;;;9.63;;
20653;SDS011;21083;50.898;4.902;2023-03-01T11:07:24;23.50;;;10.38;;
20653;SDS011;21083;50.898;4.902;2023-03-01T11:09:52;27.10;;;9.60;;
20653;SDS011;21083;50.898;4.902;2023-03-01T11:12:20;18.33;;;9.25;;
20653;SDS011;21083;50.898;4.902;2023-03-01T11:14:48;18.85;;;8.80;;
20653;SDS011;21083;50.898;4.902;2023-03-01T11:17:20;19.95;;;9.50;;
20653;SDS011;21083;50.898;4.902;2023-03-01T11:20:00;20.75;;;9.95;;
20653;SDS011;21083;50.898;4.902;2023-03-01T11:22:31;19.88;;;9.77;;
20653;SDS011;21083;50.898;4.902;2023-03-01T11:25:02;20.30;;;10.73;;
20653;SDS011;21083;50.898;4.902;2023-03-01T11:27:31;24.02;;;9.85;;
20653;SDS011;21083;50.898;4.902;2023-03-01T11:29:59;22.10;;;9.98;;
20653;SDS011;21083;50.898;4.902;2023-03-01T11:32:31;18.58;;;9.52;;
20653;SDS011;21083;50.898;4.902;2023-03-01T11:35:03;18.98;;;8.82;;
20653;SDS011;21083;50.898;4.902;2023-03-01T11:37:38;19.40;;;9.52;;
20653;SDS011;21083;50.898;4.902;2023-03-01T11:40:13;18.08;;;9.73;;
20653;SDS011;21083;50.898;4.902;2023-03-01T11:42:50;18.20;;;9.43;;
20653;SDS011;21083;50.898;4.902;2023-03-01T11:45:28;19.27;;;10.20;;
20653;SDS011;21083;50.898;4.902;2023-03-01T11:48:22;21.13;;;10.98;;
20653;SDS011;21083;50.898;4.902;2023-03-01T11:51:09;18.15;;;9.57;;
20653;SDS011;21083;50.898;4.902;2023-03-01T11:53:56;23.00;;;10.32;;
20653;SDS011;21083;50.898;4.902;2023-03-01T11:56:48;20.35;;;11.02;;
20653;SDS011;21083;50.898;4.902;2023-03-01T11:59:34;24.48;;;10.30;;
20653;SDS011;21083;50.898;4.902;2023-03-01T12:02:40;22.02;;;11.05;;
20653;SDS011;21083;50.898;4.902;2023-03-01T12:05:32;28.73;;;12.60;;
20653;SDS011;21083;50.898;4.902;2023-03-01T12:08:16;22.40;;;11.65;;
20653;SDS011;21083;50.898;4.902;2023-03-01T12:10:52;23.55;;;11.55;;
20653;SDS011;21083;50.898;4.902;2023-03-01T12:13:46;21.48;;;10.95;;
20653;SDS011;21083;50.898;4.902;2023-03-01T12:16:27;17.65;;;10.05;;
20653;SDS011;21083;50.898;4.902;2023-03-01T12:22:01;20.10;;;10.00;;
20653;SDS011;21083;50.898;4.902;2023-03-01T12:24:40;19.02;;;10.20;;
20653;SDS011;21083;50.898;4.902;2023-03-01T12:27:27;20.02;;;10.07;;
20653;SDS011;21083;50.898;4.902;2023-03-01T12:30:09;18.17;;;9.70;;
20653;SDS011;21083;50.898;4.902;2023-03-01T12:32:54;24.70;;;11.98;;
20653;SDS011;21083;50.898;4.902;2023-03-01T12:35:38;23.88;;;10.45;;
20653;SDS011;21083;50.898;4.902;2023-03-01T12:38:20;16.92;;;9.13;;
20653;SDS011;21083;50.898;4.902;2023-03-01T12:44:01;20.42;;;10.10;;
20653;SDS011;21083;50.898;4.902;2023-03-01T12:46:41;16.67;;;8.52;;
20653;SDS011;21083;50.898;4.902;2023-03-01T12:49:19;17.23;;;8.90;;
20653;SDS011;21083;50.898;4.902;2023-03-01T12:51:53;16.55;;;8.20;;
20653;SDS011;21083;50.898;4.902;2023-03-01T12:54:26;19.25;;;8.88;;
20653;SDS011;21083;50.898;4.902;2023-03-01T12:56:55;16.85;;;8.43;;
20653;SDS011;21083;50.898;4.902;2023-03-01T12:59:24;23.20;;;9.63;;
20653;SDS011;21083;50.898;4.902;2023-03-01T13:02:02;21.48;;;8.80;;
20653;SDS011;21083;50.898;4.902;2023-03-01T13:04:50;17.80;;;8.23;;
20653;SDS011;21083;50.898;4.902;2023-03-01T13:07:29;15.90;;;8.40;;
20653;SDS011;21083;50.898;4.902;2023-03-01T13:10:06;16.88;;;8.32;;
20653;SDS011;21083;50.898;4.902;2023-03-01T13:12:59;14.45;;;8.07;;
20653;SDS011;21083;50.898;4.902;2023-03-01T13:15:30;23.92;;;9.52;;
20653;SDS011;21083;50.898;4.902;2023-03-01T13:18:00;14.65;;;7.70;;
20653;SDS011;21083;50.898;4.902;2023-03-01T13:20:30;16.55;;;8.02;;
20653;SDS011;21083;50.898;4.902;2023-03-01T13:23:00;16.75;;;8.57;;
20653;SDS011;21083;50.898;4.902;2023-03-01T13:25:33;16.85;;;8.05;;
20653;SDS011;21083;50.898;4.902;2023-03-01T13:31:04;16.90;;;9.02;;
20653;SDS011;21083;50.898;4.902;2023-03-01T13:33:46;18.85;;;8.77;;
20653;SDS011;21083;50.898;4.902;2023-03-01T13:39:26;24.58;;;9.85;;
20653;SDS011;21083;50.898;4.902;2023-03-01T13:41:57;25.52;;;9.95;;
20653;SDS011;21083;50.898;4.902;2023-03-01T13:44:26;15.05;;;8.25;;
20653;SDS011;21083;50.898;4.902;2023-03-01T13:46:58;17.85;;;9.30;;
20653;SDS011;21083;50.898;4.902;2023-03-01T13:49:34;20.40;;;9.45;;
20653;SDS011;21083;50.898;4.902;2023-03-01T13:52:14;18.65;;;9.48;;
20653;SDS011;21083;50.898;4.902;2023-03-01T13:55:03;27.38;;;10.00;;
20653;SDS011;21083;50.898;4.902;2023-03-01T13:57:33;17.35;;;9.13;;
20653;SDS011;21083;50.898;4.902;2023-03-01T14:00:02;17.50;;;8.98;;
20653;SDS011;21083;50.898;4.902;2023-03-01T14:02:30;20.10;;;9.40;;
20653;SDS011;21083;50.898;4.902;2023-03-01T14:05:00;17.75;;;8.90;;
20653;SDS011;21083;50.898;4.902;2023-03-01T14:07:28;18.92;;;9.30;;
20653;SDS011;21083;50.898;4.902;2023-03-01T14:09:56;31.10;;;12.18;;
20653;SDS011;21083;50.898;4.902;2023-03-01T14:12:27;17.02;;;8.80;;
20653;SDS011;21083;50.898;4.902;2023-03-01T14:15:06;19.00;;;9.70;;
20653;SDS011;21083;50.898;4.902;2023-03-01T14:20:31;17.27;;;8.75;;
20653;SDS011;21083;50.898;4.902;2023-03-01T14:23:02;17.10;;;9.02;;
20653;SDS011;21083;50.898;4.902;2023-03-01T14:25:37;16.75;;;8.18;;
20653;SDS011;21083;50.898;4.902;2023-03-01T14:28:14;23.23;;;9.48;;
20653;SDS011;21083;50.898;4.902;2023-03-01T14:30:44;20.13;;;8.55;;
20653;SDS011;21083;50.898;4.902;2023-03-01T14:33:22;16.33;;;8.93;;
20653;SDS011;21083;50.898;4.902;2023-03-01T14:35:56;16.50;;;8.75;;
20653;SDS011;21083;50.898;4.902;2023-03-01T14:38:28;16.35;;;8.98;;
20653;SDS011;21083;50.898;4.902;2023-03-01T14:41:02;19.70;;;9.88;;
20653;SDS011;21083;50.898;4.902;2023-03-01T14:43:31;16.23;;;8.85;;
20653;SDS011;21083;50.898;4.902;2023-03-01T14:45:58;18.55;;;8.85;;
20653;SDS011;21083;50.898;4.902;2023-03-01T14:48:26;16.83;;;8.88;;
20653;SDS011;21083;50.898;4.902;2023-03-01T14:50:55;18.42;;;9.27;;
20653;SDS011;21083;50.898;4.902;2023-03-01T14:53:24;15.60;;;8.35;;
20653;SDS011;21083;50.898;4.902;2023-03-01T14:55:54;16.13;;;8.30;;
20653;SDS011;21083;50.898;4.902;2023-03-01T14:58:25;17.10;;;9.32;;
20653;SDS011;21083;50.898;4.902;2023-03-01T15:00:53;16.10;;;8.15;;
20653;SDS011;21083;50.898;4.902;2023-03-01T15:03:24;17.25;;;9.13;;
20653;SDS011;21083;50.898;4.902;2023-03-01T15:05:56;17.38;;;9.98;;
20653;SDS011;21083;50.898;4.902;2023-03-01T15:08:24;16.20;;;9.05;;
20653;SDS011;21083;50.898;4.902;2023-03-01T15:11:03;16.75;;;7.22;;
20653;SDS011;21083;50.898;4.902;2023-03-01T15:13:31;15.73;;;7.80;;